sensor_id;sensor_type;location;lat;lon;timestamp;temperature;humidity
72650;SHT31;61467;50.674;4.618;2022-12-05T00:02:21;3.40;81.83
72650;SHT31;61467;50.674;4.618;2022-12-05T00:04:49;3.53;81.42
72650;SHT31;61467;50.674;4.618;2022-12-05T00:07:16;3.39;81.83
72650;SHT31;61467;50.674;4.618;2022-12-05T00:09:44;3.56;81.56
72650;SHT31;61467;50.674;4.618;2022-12-05T00:12:10;3.64;81.16
72650;SHT31;61467;50.674;4.618;2022-12-05T00:14:37;3.63;80.93
72650;SHT31;61467;50.674;4.618;2022-12-05T00:17:04;3.70;80.78
72650;SHT31;61467;50.674;4.618;2022-12-05T00:19:30;3.73;80.39
72650;SHT31;61467;50.674;4.618;2022-12-05T00:21:57;3.76;80.25
72650;SHT31;61467;50.674;4.618;2022-12-05T00:24:24;3.66;80.14
72650;SHT31;61467;50.674;4.618;2022-12-05T00:26:52;3.66;80.26
72650;SHT31;61467;50.674;4.618;2022-12-05T00:29:18;3.69;80.26
72650;SHT31;61467;50.674;4.618;2022-12-05T00:31:45;3.74;80.09
72650;SHT31;61467;50.674;4.618;2022-12-05T00:34:12;3.67;79.92
72650;SHT31;61467;50.674;4.618;2022-12-05T00:36:39;3.70;79.83
72650;SHT31;61467;50.674;4.618;2022-12-05T00:39:07;3.72;79.90
72650;SHT31;61467;50.674;4.618;2022-12-05T00:41:36;3.64;80.12
72650;SHT31;61467;50.674;4.618;2022-12-05T00:44:06;3.59;80.05
72650;SHT31;61467;50.674;4.618;2022-12-05T00:46:34;3.60;79.95
72650;SHT31;61467;50.674;4.618;2022-12-05T00:49:01;3.62;80.02
72650;SHT31;61467;50.674;4.618;2022-12-05T00:51:30;3.55;79.96
72650;SHT31;61467;50.674;4.618;2022-12-05T00:53:57;3.63;79.98
72650;SHT31;61467;50.674;4.618;2022-12-05T00:56:25;3.64;79.73
72650;SHT31;61467;50.674;4.618;2022-12-05T00:58:54;3.60;79.75
72650;SHT31;61467;50.674;4.618;2022-12-05T01:01:24;3.48;80.18
72650;SHT31;61467;50.674;4.618;2022-12-05T01:03:53;3.38;80.65
72650;SHT31;61467;50.674;4.618;2022-12-05T01:06:20;3.35;80.79
72650;SHT31;61467;50.674;4.618;2022-12-05T01:08:47;3.46;80.66
72650;SHT31;61467;50.674;4.618;2022-12-05T01:11:16;3.58;80.46
72650;SHT31;61467;50.674;4.618;2022-12-05T01:13:43;3.63;80.18
72650;SHT31;61467;50.674;4.618;2022-12-05T01:16:13;3.55;80.09
72650;SHT31;61467;50.674;4.618;2022-12-05T01:18:42;3.55;80.46
72650;SHT31;61467;50.674;4.618;2022-12-05T01:21:08;3.50;80.47
72650;SHT31;61467;50.674;4.618;2022-12-05T01:23:35;3.40;80.58
72650;SHT31;61467;50.674;4.618;2022-12-05T01:26:05;3.26;80.91
72650;SHT31;61467;50.674;4.618;2022-12-05T01:28:31;3.25;81.15
72650;SHT31;61467;50.674;4.618;2022-12-05T01:31:03;3.31;81.15
72650;SHT31;61467;50.674;4.618;2022-12-05T01:33:31;3.29;80.79
72650;SHT31;61467;50.674;4.618;2022-12-05T01:35:59;3.36;80.45
72650;SHT31;61467;50.674;4.618;2022-12-05T01:38:26;3.32;80.59
72650;SHT31;61467;50.674;4.618;2022-12-05T01:40:59;3.28;80.76
72650;SHT31;61467;50.674;4.618;2022-12-05T01:43:26;3.23;80.71
72650;SHT31;61467;50.674;4.618;2022-12-05T01:45:53;3.33;80.78
72650;SHT31;61467;50.674;4.618;2022-12-05T01:48:24;3.26;80.69
72650;SHT31;61467;50.674;4.618;2022-12-05T01:50:51;3.13;80.98
72650;SHT31;61467;50.674;4.618;2022-12-05T01:53:20;3.25;81.04
72650;SHT31;61467;50.674;4.618;2022-12-05T01:55:49;3.16;81.11
72650;SHT31;61467;50.674;4.618;2022-12-05T01:58:17;3.21;81.14
72650;SHT31;61467;50.674;4.618;2022-12-05T02:00:45;3.31;80.76
72650;SHT31;61467;50.674;4.618;2022-12-05T02:03:16;3.40;80.38
72650;SHT31;61467;50.674;4.618;2022-12-05T02:05:45;3.44;80.15
72650;SHT31;61467;50.674;4.618;2022-12-05T02:08:15;3.50;79.77
72650;SHT31;61467;50.674;4.618;2022-12-05T02:10:45;3.60;79.57
72650;SHT31;61467;50.674;4.618;2022-12-05T02:13:33;3.59;79.31
72650;SHT31;61467;50.674;4.618;2022-12-05T02:16:10;3.64;79.09
72650;SHT31;61467;50.674;4.618;2022-12-05T02:18:51;3.63;79.10
72650;SHT31;61467;50.674;4.618;2022-12-05T02:21:38;3.69;78.77
72650;SHT31;61467;50.674;4.618;2022-12-05T02:24:33;3.70;78.72
72650;SHT31;61467;50.674;4.618;2022-12-05T02:27:22;3.63;78.66
72650;SHT31;61467;50.674;4.618;2022-12-05T02:30:11;3.69;78.66
72650;SHT31;61467;50.674;4.618;2022-12-05T02:32:51;3.70;78.63
72650;SHT31;61467;50.674;4.618;2022-12-05T02:35:29;3.69;78.67
72650;SHT31;61467;50.674;4.618;2022-12-05T02:38:07;3.67;78.73
72650;SHT31;61467;50.674;4.618;2022-12-05T02:40:42;3.63;78.74
72650;SHT31;61467;50.674;4.618;2022-12-05T02:43:12;3.53;78.94
72650;SHT31;61467;50.674;4.618;2022-12-05T02:45:44;3.55;79.20
72650;SHT31;61467;50.674;4.618;2022-12-05T02:48:14;3.50;79.18
72650;SHT31;61467;50.674;4.618;2022-12-05T02:50:43;3.50;79.23
72650;SHT31;61467;50.674;4.618;2022-12-05T02:53:11;3.56;79.31
72650;SHT31;61467;50.674;4.618;2022-12-05T02:55:40;3.63;78.91
72650;SHT31;61467;50.674;4.618;2022-12-05T02:58:13;3.50;79.04
72650;SHT31;61467;50.674;4.618;2022-12-05T03:00:45;3.53;79.19
72650;SHT31;61467;50.674;4.618;2022-12-05T03:03:16;3.52;79.22
72650;SHT31;61467;50.674;4.618;2022-12-05T03:05:49;3.59;78.85
72650;SHT31;61467;50.674;4.618;2022-12-05T03:08:20;3.60;79.01
72650;SHT31;61467;50.674;4.618;2022-12-05T03:10:48;3.60;78.95
72650;SHT31;61467;50.674;4.618;2022-12-05T03:13:20;3.60;78.84
72650;SHT31;61467;50.674;4.618;2022-12-05T03:15:52;3.63;78.75
72650;SHT31;61467;50.674;4.618;2022-12-05T03:18:23;3.59;78.94
72650;SHT31;61467;50.674;4.618;2022-12-05T03:20:53;3.59;78.88
72650;SHT31;61467;50.674;4.618;2022-12-05T03:23:26;3.60;78.65
72650;SHT31;61467;50.674;4.618;2022-12-05T03:25:58;3.62;78.93
72650;SHT31;61467;50.674;4.618;2022-12-05T03:28:30;3.53;79.11
72650;SHT31;61467;50.674;4.618;2022-12-05T03:31:07;3.50;79.06
72650;SHT31;61467;50.674;4.618;2022-12-05T03:33:38;3.52;79.28
72650;SHT31;61467;50.674;4.618;2022-12-05T03:36:11;3.56;79.07
72650;SHT31;61467;50.674;4.618;2022-12-05T03:38:43;3.53;79.01
72650;SHT31;61467;50.674;4.618;2022-12-05T03:41:18;3.50;79.02
72650;SHT31;61467;50.674;4.618;2022-12-05T03:43:53;3.55;79.06
72650;SHT31;61467;50.674;4.618;2022-12-05T03:46:25;3.48;78.99
72650;SHT31;61467;50.674;4.618;2022-12-05T03:48:54;3.52;79.03
72650;SHT31;61467;50.674;4.618;2022-12-05T03:51:26;3.56;79.04
72650;SHT31;61467;50.674;4.618;2022-12-05T03:53:57;3.53;78.89
72650;SHT31;61467;50.674;4.618;2022-12-05T03:56:29;3.52;79.10
72650;SHT31;61467;50.674;4.618;2022-12-05T03:59:04;3.55;79.04
72650;SHT31;61467;50.674;4.618;2022-12-05T04:01:34;3.50;79.02
72650;SHT31;61467;50.674;4.618;2022-12-05T04:04:12;3.42;79.32
72650;SHT31;61467;50.674;4.618;2022-12-05T04:06:40;3.21;80.08
72650;SHT31;61467;50.674;4.618;2022-12-05T04:09:11;3.36;80.13
72650;SHT31;61467;50.674;4.618;2022-12-05T04:11:42;3.32;79.80
72650;SHT31;61467;50.674;4.618;2022-12-05T04:14:13;3.26;80.02
72650;SHT31;61467;50.674;4.618;2022-12-05T04:16:44;3.35;80.09
72650;SHT31;61467;50.674;4.618;2022-12-05T04:19:35;3.40;79.90
72650;SHT31;61467;50.674;4.618;2022-12-05T04:22:24;3.49;79.76
72650;SHT31;61467;50.674;4.618;2022-12-05T04:24:52;3.43;79.58
72650;SHT31;61467;50.674;4.618;2022-12-05T04:27:40;3.50;79.63
72650;SHT31;61467;50.674;4.618;2022-12-05T04:30:13;3.56;79.51
72650;SHT31;61467;50.674;4.618;2022-12-05T04:32:45;3.58;79.34
72650;SHT31;61467;50.674;4.618;2022-12-05T04:35:18;3.58;79.38
72650;SHT31;61467;50.674;4.618;2022-12-05T04:37:48;3.42;79.35
72650;SHT31;61467;50.674;4.618;2022-12-05T04:40:19;3.43;79.63
72650;SHT31;61467;50.674;4.618;2022-12-05T04:42:48;3.50;79.53
72650;SHT31;61467;50.674;4.618;2022-12-05T04:45:18;3.56;79.27
72650;SHT31;61467;50.674;4.618;2022-12-05T04:47:50;3.59;79.00
72650;SHT31;61467;50.674;4.618;2022-12-05T04:50:20;3.55;79.06
72650;SHT31;61467;50.674;4.618;2022-12-05T04:52:51;3.59;78.97
72650;SHT31;61467;50.674;4.618;2022-12-05T04:55:22;3.53;79.15
72650;SHT31;61467;50.674;4.618;2022-12-05T04:57:55;3.52;79.26
72650;SHT31;61467;50.674;4.618;2022-12-05T05:00:25;3.52;79.30
72650;SHT31;61467;50.674;4.618;2022-12-05T05:02:59;3.53;79.24
72650;SHT31;61467;50.674;4.618;2022-12-05T05:05:27;3.60;79.26
72650;SHT31;61467;50.674;4.618;2022-12-05T05:07:54;3.59;79.20
72650;SHT31;61467;50.674;4.618;2022-12-05T05:10:25;3.52;79.15
72650;SHT31;61467;50.674;4.618;2022-12-05T05:12:54;3.49;79.49
72650;SHT31;61467;50.674;4.618;2022-12-05T05:15:21;3.40;79.51
72650;SHT31;61467;50.674;4.618;2022-12-05T05:17:47;3.40;79.86
72650;SHT31;61467;50.674;4.618;2022-12-05T05:20:15;3.52;79.67
72650;SHT31;61467;50.674;4.618;2022-12-05T05:22:53;3.38;79.83
72650;SHT31;61467;50.674;4.618;2022-12-05T05:25:21;3.46;80.08
72650;SHT31;61467;50.674;4.618;2022-12-05T05:27:48;3.38;80.05
72650;SHT31;61467;50.674;4.618;2022-12-05T05:30:16;3.49;80.18
72650;SHT31;61467;50.674;4.618;2022-12-05T05:32:43;3.46;79.99
72650;SHT31;61467;50.674;4.618;2022-12-05T05:35:10;3.48;79.97
72650;SHT31;61467;50.674;4.618;2022-12-05T05:37:38;3.50;80.03
72650;SHT31;61467;50.674;4.618;2022-12-05T05:40:06;3.52;79.95
72650;SHT31;61467;50.674;4.618;2022-12-05T05:42:33;3.55;79.95
72650;SHT31;61467;50.674;4.618;2022-12-05T05:44:59;3.56;80.09
72650;SHT31;61467;50.674;4.618;2022-12-05T05:47:26;3.63;79.80
72650;SHT31;61467;50.674;4.618;2022-12-05T05:49:53;3.66;79.64
72650;SHT31;61467;50.674;4.618;2022-12-05T05:52:19;3.67;79.51
72650;SHT31;61467;50.674;4.618;2022-12-05T05:54:47;3.64;79.56
72650;SHT31;61467;50.674;4.618;2022-12-05T05:57:14;3.66;79.59
72650;SHT31;61467;50.674;4.618;2022-12-05T05:59:40;3.63;79.66
72650;SHT31;61467;50.674;4.618;2022-12-05T06:02:07;3.69;79.77
72650;SHT31;61467;50.674;4.618;2022-12-05T06:04:34;3.64;79.65
72650;SHT31;61467;50.674;4.618;2022-12-05T06:07:00;3.79;79.63
72650;SHT31;61467;50.674;4.618;2022-12-05T06:09:27;3.74;79.59
72650;SHT31;61467;50.674;4.618;2022-12-05T06:11:55;3.79;79.47
72650;SHT31;61467;50.674;4.618;2022-12-05T06:14:22;3.79;79.35
72650;SHT31;61467;50.674;4.618;2022-12-05T06:16:48;3.80;79.37
72650;SHT31;61467;50.674;4.618;2022-12-05T06:19:15;3.87;79.57
72650;SHT31;61467;50.674;4.618;2022-12-05T06:21:42;3.87;79.32
72650;SHT31;61467;50.674;4.618;2022-12-05T06:24:08;3.80;79.65
72650;SHT31;61467;50.674;4.618;2022-12-05T06:26:35;3.80;79.58
72650;SHT31;61467;50.674;4.618;2022-12-05T06:29:03;3.77;79.79
72650;SHT31;61467;50.674;4.618;2022-12-05T06:31:30;3.76;79.92
72650;SHT31;61467;50.674;4.618;2022-12-05T06:33:59;3.73;80.14
72650;SHT31;61467;50.674;4.618;2022-12-05T06:36:27;3.72;80.26
72650;SHT31;61467;50.674;4.618;2022-12-05T06:38:54;3.73;80.17
72650;SHT31;61467;50.674;4.618;2022-12-05T06:41:21;3.81;80.02
72650;SHT31;61467;50.674;4.618;2022-12-05T06:43:51;3.86;79.77
72650;SHT31;61467;50.674;4.618;2022-12-05T06:46:20;3.89;79.52
72650;SHT31;61467;50.674;4.618;2022-12-05T06:48:47;3.90;79.41
72650;SHT31;61467;50.674;4.618;2022-12-05T06:51:15;3.89;79.26
72650;SHT31;61467;50.674;4.618;2022-12-05T06:53:42;3.74;79.34
72650;SHT31;61467;50.674;4.618;2022-12-05T06:56:12;3.79;79.35
72650;SHT31;61467;50.674;4.618;2022-12-05T06:58:39;3.86;79.43
72650;SHT31;61467;50.674;4.618;2022-12-05T07:01:10;3.86;79.22
72650;SHT31;61467;50.674;4.618;2022-12-05T07:03:55;3.84;78.95
72650;SHT31;61467;50.674;4.618;2022-12-05T07:06:22;3.86;78.97
72650;SHT31;61467;50.674;4.618;2022-12-05T07:08:49;3.83;78.94
72650;SHT31;61467;50.674;4.618;2022-12-05T07:11:15;3.87;79.01
72650;SHT31;61467;50.674;4.618;2022-12-05T07:13:42;3.87;78.90
72650;SHT31;61467;50.674;4.618;2022-12-05T07:16:09;3.81;78.85
72650;SHT31;61467;50.674;4.618;2022-12-05T07:18:36;3.84;78.85
72650;SHT31;61467;50.674;4.618;2022-12-05T07:21:06;3.84;78.79
72650;SHT31;61467;50.674;4.618;2022-12-05T07:23:32;3.84;78.67
72650;SHT31;61467;50.674;4.618;2022-12-05T07:26:03;3.80;78.70
72650;SHT31;61467;50.674;4.618;2022-12-05T07:28:30;3.74;78.69
72650;SHT31;61467;50.674;4.618;2022-12-05T07:31:00;3.67;79.00
72650;SHT31;61467;50.674;4.618;2022-12-05T07:33:27;3.67;79.32
72650;SHT31;61467;50.674;4.618;2022-12-05T07:35:58;3.73;79.23
72650;SHT31;61467;50.674;4.618;2022-12-05T07:38:27;3.69;79.12
72650;SHT31;61467;50.674;4.618;2022-12-05T07:40:54;3.72;79.22
72650;SHT31;61467;50.674;4.618;2022-12-05T07:43:21;3.70;79.37
72650;SHT31;61467;50.674;4.618;2022-12-05T07:45:48;3.62;79.42
72650;SHT31;61467;50.674;4.618;2022-12-05T07:48:14;3.69;79.40
72650;SHT31;61467;50.674;4.618;2022-12-05T07:50:41;3.67;79.25
72650;SHT31;61467;50.674;4.618;2022-12-05T07:53:08;3.67;79.27
72650;SHT31;61467;50.674;4.618;2022-12-05T07:55:37;3.40;80.21
72650;SHT31;61467;50.674;4.618;2022-12-05T07:58:04;3.42;80.17
72650;SHT31;61467;50.674;4.618;2022-12-05T08:00:30;3.43;80.24
72650;SHT31;61467;50.674;4.618;2022-12-05T08:02:57;3.49;80.23
72650;SHT31;61467;50.674;4.618;2022-12-05T08:05:24;3.59;79.98
72650;SHT31;61467;50.674;4.618;2022-12-05T08:07:50;3.66;79.59
72650;SHT31;61467;50.674;4.618;2022-12-05T08:10:17;3.73;79.46
72650;SHT31;61467;50.674;4.618;2022-12-05T08:12:45;3.73;79.17
72650;SHT31;61467;50.674;4.618;2022-12-05T08:15:12;3.80;79.10
72650;SHT31;61467;50.674;4.618;2022-12-05T08:17:38;3.80;79.01
72650;SHT31;61467;50.674;4.618;2022-12-05T08:20:06;3.79;78.89
72650;SHT31;61467;50.674;4.618;2022-12-05T08:22:33;3.83;78.77
72650;SHT31;61467;50.674;4.618;2022-12-05T08:25:00;3.81;78.73
72650;SHT31;61467;50.674;4.618;2022-12-05T08:27:26;3.80;78.73
72650;SHT31;61467;50.674;4.618;2022-12-05T08:29:54;3.84;78.80
72650;SHT31;61467;50.674;4.618;2022-12-05T08:32:21;3.87;78.56
72650;SHT31;61467;50.674;4.618;2022-12-05T08:34:48;3.86;78.62
72650;SHT31;61467;50.674;4.618;2022-12-05T08:37:15;3.84;78.72
72650;SHT31;61467;50.674;4.618;2022-12-05T08:39:42;3.84;78.45
72650;SHT31;61467;50.674;4.618;2022-12-05T08:42:08;3.84;78.42
72650;SHT31;61467;50.674;4.618;2022-12-05T08:44:35;3.91;78.34
72650;SHT31;61467;50.674;4.618;2022-12-05T08:47:03;3.94;78.07
72650;SHT31;61467;50.674;4.618;2022-12-05T08:49:30;3.93;78.14
72650;SHT31;61467;50.674;4.618;2022-12-05T08:51:57;3.93;78.27
72650;SHT31;61467;50.674;4.618;2022-12-05T08:54:23;3.91;78.15
72650;SHT31;61467;50.674;4.618;2022-12-05T08:56:50;3.93;78.20
72650;SHT31;61467;50.674;4.618;2022-12-05T08:59:17;3.87;78.21
72650;SHT31;61467;50.674;4.618;2022-12-05T09:01:44;3.87;78.24
72650;SHT31;61467;50.674;4.618;2022-12-05T09:04:12;3.86;78.22
72650;SHT31;61467;50.674;4.618;2022-12-05T09:06:40;3.90;78.34
72650;SHT31;61467;50.674;4.618;2022-12-05T09:09:08;3.93;78.45
72650;SHT31;61467;50.674;4.618;2022-12-05T09:11:37;3.97;78.20
72650;SHT31;61467;50.674;4.618;2022-12-05T09:14:08;4.01;78.25
72650;SHT31;61467;50.674;4.618;2022-12-05T09:16:36;4.03;78.24
72650;SHT31;61467;50.674;4.618;2022-12-05T09:19:03;4.04;77.92
72650;SHT31;61467;50.674;4.618;2022-12-05T09:21:31;4.05;77.91
72650;SHT31;61467;50.674;4.618;2022-12-05T09:23:59;4.03;77.94
72650;SHT31;61467;50.674;4.618;2022-12-05T09:26:26;4.04;77.88
72650;SHT31;61467;50.674;4.618;2022-12-05T09:28:54;4.04;77.85
72650;SHT31;61467;50.674;4.618;2022-12-05T09:31:24;4.05;77.93
72650;SHT31;61467;50.674;4.618;2022-12-05T09:33:52;4.01;78.01
72650;SHT31;61467;50.674;4.618;2022-12-05T09:36:21;4.00;78.30
72650;SHT31;61467;50.674;4.618;2022-12-05T09:38:49;4.00;78.23
72650;SHT31;61467;50.674;4.618;2022-12-05T09:41:26;3.90;78.34
72650;SHT31;61467;50.674;4.618;2022-12-05T09:44:16;3.91;78.63
72650;SHT31;61467;50.674;4.618;2022-12-05T09:46:52;3.90;78.52
72650;SHT31;61467;50.674;4.618;2022-12-05T09:49:21;3.91;78.67
72650;SHT31;61467;50.674;4.618;2022-12-05T09:51:50;4.01;78.68
72650;SHT31;61467;50.674;4.618;2022-12-05T09:54:19;4.04;78.46
72650;SHT31;61467;50.674;4.618;2022-12-05T09:56:48;4.01;78.50
72650;SHT31;61467;50.674;4.618;2022-12-05T09:59:16;3.84;78.92
72650;SHT31;61467;50.674;4.618;2022-12-05T10:01:50;3.86;78.96
72650;SHT31;61467;50.674;4.618;2022-12-05T10:04:48;3.87;79.16
72650;SHT31;61467;50.674;4.618;2022-12-05T10:07:22;3.84;79.28
72650;SHT31;61467;50.674;4.618;2022-12-05T10:10:02;3.81;79.38
72650;SHT31;61467;50.674;4.618;2022-12-05T10:12:44;3.90;79.36
72650;SHT31;61467;50.674;4.618;2022-12-05T10:15:16;3.94;79.15
72650;SHT31;61467;50.674;4.618;2022-12-05T10:17:47;3.98;79.17
72650;SHT31;61467;50.674;4.618;2022-12-05T10:20:18;3.94;79.17
72650;SHT31;61467;50.674;4.618;2022-12-05T10:22:49;4.07;78.97
72650;SHT31;61467;50.674;4.618;2022-12-05T10:25:21;4.15;79.03
72650;SHT31;61467;50.674;4.618;2022-12-05T10:27:50;4.18;78.76
72650;SHT31;61467;50.674;4.618;2022-12-05T10:30:19;4.22;79.44
72650;SHT31;61467;50.674;4.618;2022-12-05T10:32:51;4.25;79.32
72650;SHT31;61467;50.674;4.618;2022-12-05T10:35:21;4.32;79.23
72650;SHT31;61467;50.674;4.618;2022-12-05T10:37:49;4.27;79.66
72650;SHT31;61467;50.674;4.618;2022-12-05T10:40:17;4.15;79.51
72650;SHT31;61467;50.674;4.618;2022-12-05T10:42:46;4.28;80.05
72650;SHT31;61467;50.674;4.618;2022-12-05T10:45:17;4.24;80.33
72650;SHT31;61467;50.674;4.618;2022-12-05T10:47:44;4.21;79.78
72650;SHT31;61467;50.674;4.618;2022-12-05T10:50:23;4.22;79.90
72650;SHT31;61467;50.674;4.618;2022-12-05T10:52:51;4.31;79.18
72650;SHT31;61467;50.674;4.618;2022-12-05T10:55:18;4.18;79.53
72650;SHT31;61467;50.674;4.618;2022-12-05T10:57:51;4.28;79.68
72650;SHT31;61467;50.674;4.618;2022-12-05T11:00:33;4.30;79.04
72650;SHT31;61467;50.674;4.618;2022-12-05T11:03:02;4.27;78.82
72650;SHT31;61467;50.674;4.618;2022-12-05T11:05:30;4.40;78.55
72650;SHT31;61467;50.674;4.618;2022-12-05T11:07:58;4.49;78.70
72650;SHT31;61467;50.674;4.618;2022-12-05T11:10:28;4.52;78.73
72650;SHT31;61467;50.674;4.618;2022-12-05T11:12:58;4.56;78.91
72650;SHT31;61467;50.674;4.618;2022-12-05T11:15:26;4.59;77.78
72650;SHT31;61467;50.674;4.618;2022-12-05T11:17:55;4.53;78.03
72650;SHT31;61467;50.674;4.618;2022-12-05T11:20:38;4.55;78.56
72650;SHT31;61467;50.674;4.618;2022-12-05T11:23:19;4.65;78.48
72650;SHT31;61467;50.674;4.618;2022-12-05T11:25:47;4.68;78.48
72650;SHT31;61467;50.674;4.618;2022-12-05T11:28:30;4.58;77.39
72650;SHT31;61467;50.674;4.618;2022-12-05T11:30:59;4.51;78.16
72650;SHT31;61467;50.674;4.618;2022-12-05T11:33:30;4.56;78.39
72650;SHT31;61467;50.674;4.618;2022-12-05T11:36:02;4.59;78.58
72650;SHT31;61467;50.674;4.618;2022-12-05T11:38:30;4.61;78.32
72650;SHT31;61467;50.674;4.618;2022-12-05T11:41:08;4.65;78.27
72650;SHT31;61467;50.674;4.618;2022-12-05T11:43:50;4.48;78.10
72650;SHT31;61467;50.674;4.618;2022-12-05T11:46:27;5.79;84.86
72650;SHT31;61467;50.674;4.618;2022-12-05T11:49:05;5.44;75.72
72650;SHT31;61467;50.674;4.618;2022-12-05T11:51:39;5.07;75.70
72650;SHT31;61467;50.674;4.618;2022-12-05T11:57:06;4.73;77.40
72650;SHT31;61467;50.674;4.618;2022-12-05T11:59:54;4.76;77.61
72650;SHT31;61467;50.674;4.618;2022-12-05T12:02:34;4.80;78.15
72650;SHT31;61467;50.674;4.618;2022-12-05T12:05:13;4.48;78.33
72650;SHT31;61467;50.674;4.618;2022-12-05T12:07:53;4.35;79.48
72650;SHT31;61467;50.674;4.618;2022-12-05T12:10:32;4.49;79.57
72650;SHT31;61467;50.674;4.618;2022-12-05T12:13:13;4.58;78.76
72650;SHT31;61467;50.674;4.618;2022-12-05T12:15:56;4.56;78.13
72650;SHT31;61467;50.674;4.618;2022-12-05T12:18:43;4.62;78.68
72650;SHT31;61467;50.674;4.618;2022-12-05T12:21:16;4.66;79.06
72650;SHT31;61467;50.674;4.618;2022-12-05T12:23:55;4.62;78.37
72650;SHT31;61467;50.674;4.618;2022-12-05T12:26:31;4.40;79.15
72650;SHT31;61467;50.674;4.618;2022-12-05T12:29:11;4.22;80.43
72650;SHT31;61467;50.674;4.618;2022-12-05T12:31:54;4.32;80.71
72650;SHT31;61467;50.674;4.618;2022-12-05T12:34:41;4.30;80.79
72650;SHT31;61467;50.674;4.618;2022-12-05T12:37:21;4.58;79.56
72650;SHT31;61467;50.674;4.618;2022-12-05T12:39:59;4.46;79.31
72650;SHT31;61467;50.674;4.618;2022-12-05T12:42:37;4.42;80.09
72650;SHT31;61467;50.674;4.618;2022-12-05T12:45:39;4.45;80.30
72650;SHT31;61467;50.674;4.618;2022-12-05T12:48:22;4.61;79.10
72650;SHT31;61467;50.674;4.618;2022-12-05T12:50:52;4.63;79.12
72650;SHT31;61467;50.674;4.618;2022-12-05T12:53:40;4.49;79.42
72650;SHT31;61467;50.674;4.618;2022-12-05T12:56:20;4.48;79.36
72650;SHT31;61467;50.674;4.618;2022-12-05T12:58:52;4.58;79.21
72650;SHT31;61467;50.674;4.618;2022-12-05T13:01:28;4.52;79.25
72650;SHT31;61467;50.674;4.618;2022-12-05T13:04:03;4.71;79.04
72650;SHT31;61467;50.674;4.618;2022-12-05T13:06:39;4.84;78.74
72650;SHT31;61467;50.674;4.618;2022-12-05T13:09:14;4.83;78.24
72650;SHT31;61467;50.674;4.618;2022-12-05T13:11:44;4.90;78.06
72650;SHT31;61467;50.674;4.618;2022-12-05T13:14:14;5.00;77.87
72650;SHT31;61467;50.674;4.618;2022-12-05T13:16:46;4.92;77.96
72650;SHT31;61467;50.674;4.618;2022-12-05T13:19:22;4.99;77.49
72650;SHT31;61467;50.674;4.618;2022-12-05T13:21:50;5.01;78.39
72650;SHT31;61467;50.674;4.618;2022-12-05T13:24:19;4.94;78.38
72650;SHT31;61467;50.674;4.618;2022-12-05T13:26:50;4.97;77.68
72650;SHT31;61467;50.674;4.618;2022-12-05T13:29:20;5.01;78.18
72650;SHT31;61467;50.674;4.618;2022-12-05T13:31:48;5.06;77.73
72650;SHT31;61467;50.674;4.618;2022-12-05T13:34:45;5.01;77.20
72650;SHT31;61467;50.674;4.618;2022-12-05T13:37:20;5.04;77.99
72650;SHT31;61467;50.674;4.618;2022-12-05T13:40:17;5.03;78.23
72650;SHT31;61467;50.674;4.618;2022-12-05T13:43:02;5.09;78.10
72650;SHT31;61467;50.674;4.618;2022-12-05T13:45:29;5.17;78.13
72650;SHT31;61467;50.674;4.618;2022-12-05T13:48:07;5.17;78.35
72650;SHT31;61467;50.674;4.618;2022-12-05T13:50:45;5.23;77.59
72650;SHT31;61467;50.674;4.618;2022-12-05T13:53:25;5.24;77.18
72650;SHT31;61467;50.674;4.618;2022-12-05T13:55:58;5.26;78.27
72650;SHT31;61467;50.674;4.618;2022-12-05T13:58:43;5.13;77.62
72650;SHT31;61467;50.674;4.618;2022-12-05T14:01:44;5.13;78.00
72650;SHT31;61467;50.674;4.618;2022-12-05T14:07:37;5.21;77.99
72650;SHT31;61467;50.674;4.618;2022-12-05T14:10:05;5.26;77.94
72650;SHT31;61467;50.674;4.618;2022-12-05T14:13:00;5.26;77.78
72650;SHT31;61467;50.674;4.618;2022-12-05T14:15:32;5.30;77.81
72650;SHT31;61467;50.674;4.618;2022-12-05T14:18:02;5.30;78.04
72650;SHT31;61467;50.674;4.618;2022-12-05T14:20:43;5.26;78.00
72650;SHT31;61467;50.674;4.618;2022-12-05T14:26:39;5.21;78.41
72650;SHT31;61467;50.674;4.618;2022-12-05T14:29:20;5.27;78.01
72650;SHT31;61467;50.674;4.618;2022-12-05T14:32:00;5.33;77.93
72650;SHT31;61467;50.674;4.618;2022-12-05T14:34:30;5.21;79.07
72650;SHT31;61467;50.674;4.618;2022-12-05T14:37:00;5.26;78.28
72650;SHT31;61467;50.674;4.618;2022-12-05T14:39:35;5.20;78.66
72650;SHT31;61467;50.674;4.618;2022-12-05T14:42:18;5.23;79.22
72650;SHT31;61467;50.674;4.618;2022-12-05T14:44:46;5.31;78.28
72650;SHT31;61467;50.674;4.618;2022-12-05T14:47:18;5.34;77.66
72650;SHT31;61467;50.674;4.618;2022-12-05T14:49:56;5.34;78.21
72650;SHT31;61467;50.674;4.618;2022-12-05T14:52:27;5.30;78.10
72650;SHT31;61467;50.674;4.618;2022-12-05T14:55:00;5.40;78.24
72650;SHT31;61467;50.674;4.618;2022-12-05T14:57:30;5.34;78.41
72650;SHT31;61467;50.674;4.618;2022-12-05T15:00:00;5.33;78.74
72650;SHT31;61467;50.674;4.618;2022-12-05T15:02:30;5.40;77.87
72650;SHT31;61467;50.674;4.618;2022-12-05T15:05:02;5.34;77.86
72650;SHT31;61467;50.674;4.618;2022-12-05T15:07:31;5.37;77.41
72650;SHT31;61467;50.674;4.618;2022-12-05T15:10:01;5.38;78.16
72650;SHT31;61467;50.674;4.618;2022-12-05T15:12:35;5.40;78.07
72650;SHT31;61467;50.674;4.618;2022-12-05T15:15:10;5.30;78.09
72650;SHT31;61467;50.674;4.618;2022-12-05T15:17:43;5.27;78.77
72650;SHT31;61467;50.674;4.618;2022-12-05T15:20:16;5.33;78.63
72650;SHT31;61467;50.674;4.618;2022-12-05T15:22:44;5.40;78.64
72650;SHT31;61467;50.674;4.618;2022-12-05T15:25:23;5.38;78.42
72650;SHT31;61467;50.674;4.618;2022-12-05T15:27:54;5.31;78.25
72650;SHT31;61467;50.674;4.618;2022-12-05T15:30:21;5.16;78.44
72650;SHT31;61467;50.674;4.618;2022-12-05T15:32:48;5.28;78.15
72650;SHT31;61467;50.674;4.618;2022-12-05T15:35:15;5.37;78.51
72650;SHT31;61467;50.674;4.618;2022-12-05T15:37:46;5.37;78.91
72650;SHT31;61467;50.674;4.618;2022-12-05T15:40:16;5.41;79.02
72650;SHT31;61467;50.674;4.618;2022-12-05T15:42:48;5.33;78.88
72650;SHT31;61467;50.674;4.618;2022-12-05T15:45:22;5.40;78.38
72650;SHT31;61467;50.674;4.618;2022-12-05T15:47:51;5.48;78.42
72650;SHT31;61467;50.674;4.618;2022-12-05T15:50:24;5.40;78.41
72650;SHT31;61467;50.674;4.618;2022-12-05T15:52:54;5.51;78.32
72650;SHT31;61467;50.674;4.618;2022-12-05T15:55:25;5.51;77.75
72650;SHT31;61467;50.674;4.618;2022-12-05T15:57:56;5.54;77.81
72650;SHT31;61467;50.674;4.618;2022-12-05T16:00:26;5.48;77.68
72650;SHT31;61467;50.674;4.618;2022-12-05T16:02:57;5.48;78.00
72650;SHT31;61467;50.674;4.618;2022-12-05T16:05:28;5.54;78.09
72650;SHT31;61467;50.674;4.618;2022-12-05T16:07:56;5.52;78.67
72650;SHT31;61467;50.674;4.618;2022-12-05T16:10:23;5.59;77.90
72650;SHT31;61467;50.674;4.618;2022-12-05T16:12:51;5.61;78.07
72650;SHT31;61467;50.674;4.618;2022-12-05T16:15:21;5.56;78.06
72650;SHT31;61467;50.674;4.618;2022-12-05T16:17:54;5.64;78.21
72650;SHT31;61467;50.674;4.618;2022-12-05T16:20:28;5.61;78.24
72650;SHT31;61467;50.674;4.618;2022-12-05T16:22:59;5.62;77.93